Time;durP1;ratioP1;P1;durP2;ratioP2;P2;SDS_P1;SDS_P2;PMS_P1;PMS_P2;Temp;Humidity;BMP_temperature;BMP_pressure;BME280_temperature;BME280_humidity;BME280_pressure;Samples;Min_cycle;Max_cycle;Signal;HPM_P1;HPM_P2
2023/01/30 00:01:44;;;;;;;7.77;5.77;;;-2.10;99.90;-1.70;97033.00;;;;5025340;28;20491;-69
2023/01/30 00:04:35;;;;;;;7.93;6.97;;;-2.20;99.90;-1.60;97029.00;;;;5026024;28;20513;-69
2023/01/30 00:07:23;;;;;;;7.50;5.23;;;-2.30;99.90;-1.60;97028.00;;;;5031845;28;20475;-69
2023/01/30 00:10:12;;;;;;;5.87;5.37;;;-2.30;99.90;-1.40;97026.00;;;;5032160;28;20516;-69
2023/01/30 00:13:01;;;;;;;5.43;4.73;;;-2.40;99.90;-1.40;97027.00;;;;5025577;28;20486;-70
2023/01/30 00:15:50;;;;;;;8.20;5.23;;;-1.80;99.90;-1.60;97018.00;;;;5018885;28;21033;-69
2023/01/30 00:18:40;;;;;;;5.30;4.57;;;-2.40;99.90;-1.60;97010.00;;;;5022510;28;20416;-70
2023/01/30 00:21:30;;;;;;;7.07;5.40;;;-2.40;99.90;-1.60;97012.00;;;;5022140;28;20424;-70
2023/01/30 00:24:19;;;;;;;6.87;5.23;;;-2.40;99.90;-1.60;97011.00;;;;5018703;28;20424;-70
2023/01/30 00:27:07;;;;;;;10.10;6.07;;;-2.40;99.90;-1.80;97008.00;;;;5017671;28;20862;-70
2023/01/30 00:29:56;;;;;;;7.90;6.63;;;-2.50;99.90;-2.00;96999.00;;;;5029957;28;21248;-70
2023/01/30 00:32:55;;;;;;;8.23;5.20;;;-2.60;99.90;-1.80;97000.00;;;;5031103;28;20499;-70
2023/01/30 00:35:44;;;;;;;5.63;5.00;;;-2.60;99.90;-1.80;96999.00;;;;5031244;28;20432;-70
2023/01/30 00:38:35;;;;;;;6.73;5.73;;;-2.20;99.90;-1.70;97010.00;;;;5030303;28;20479;-70
2023/01/30 00:47:03;;;;;;;9.13;5.10;;;-2.60;99.90;-1.80;97009.00;;;;5029776;28;20431;-70
2023/01/30 00:47:39;;;;;;;12.00;4.20;;;-2.60;99.90;-1.80;97000.00;;;;5031282;28;20475;-70
2023/01/30 00:50:41;;;;;;;9.70;5.37;;;-2.60;99.90;-1.70;97004.00;;;;5028780;28;20511;-70
2023/01/30 00:53:30;;;;;;;5.47;4.17;;;-2.60;99.90;-1.80;96988.00;;;;5023828;28;20428;-69
2023/01/30 00:56:20;;;;;;;7.57;3.40;;;-2.50;99.90;-2.00;96996.00;;;;5030899;28;20431;-69
2023/01/30 00:59:09;;;;;;;6.30;4.17;;;-2.70;99.90;-2.30;96997.00;;;;5031301;28;20436;-70
2023/01/30 01:01:57;;;;;;;5.20;4.07;;;-2.70;99.90;-2.20;96989.00;;;;5023340;28;20780;-70
2023/01/30 01:04:46;;;;;;;2.57;2.33;;;-2.80;99.90;-2.30;96989.00;;;;5014289;28;20410;-70
2023/01/30 01:07:35;;;;;;;6.30;5.00;;;-2.80;99.90;-2.30;96983.00;;;;5030701;28;20795;-70
2023/01/30 01:10:24;;;;;;;9.80;4.90;;;-2.80;99.90;-2.20;96984.00;;;;5030737;28;20936;-69
2023/01/30 01:13:14;;;;;;;4.23;3.83;;;-2.80;99.90;-2.50;96977.00;;;;5028412;28;20511;-69
2023/01/30 01:16:03;;;;;;;4.00;2.80;;;-2.80;99.90;-2.70;96982.00;;;;5024030;28;20432;-70
2023/01/30 01:18:52;;;;;;;6.17;3.97;;;-2.90;99.90;-2.60;96973.00;;;;5029635;28;20428;-70
2023/01/30 01:21:41;;;;;;;5.00;4.50;;;-3.00;99.90;-2.20;96978.00;;;;5030524;28;20435;-70
2023/01/30 01:24:30;;;;;;;7.23;5.33;;;-3.00;99.90;-2.20;96974.00;;;;5030040;28;20977;-70
2023/01/30 01:27:18;;;;;;;4.03;3.50;;;-3.00;99.90;-2.30;96962.00;;;;5025677;28;20945;-69
2023/01/30 01:30:11;;;;;;;4.50;4.17;;;-3.00;99.90;-2.10;96992.00;;;;5022269;28;20487;-70
2023/01/30 01:32:59;;;;;;;5.70;3.67;;;-3.00;99.90;-2.10;96972.00;;;;5020473;28;20433;-69
2023/01/30 01:35:48;;;;;;;6.20;4.53;;;-3.00;99.90;-2.60;96948.00;;;;5029160;28;20487;-69
2023/01/30 01:38:37;;;;;;;5.50;3.67;;;-3.10;99.90;-2.40;96957.00;;;;5029120;28;20522;-69
2023/01/30 01:41:26;;;;;;;5.53;4.40;;;-3.10;99.90;-2.40;96959.00;;;;5028764;28;21041;-70
2023/01/30 01:44:15;;;;;;;6.37;3.43;;;-3.10;99.90;-2.20;96967.00;;;;5029442;28;20443;-69
2023/01/30 01:47:07;;;;;;;3.33;3.03;;;-3.10;99.90;-2.20;96960.00;;;;5029279;28;20472;-69
2023/01/30 01:49:56;;;;;;;5.07;3.17;;;-3.10;99.90;-2.30;96946.00;;;;5028708;28;20428;-70
2023/01/30 01:52:46;;;;;;;4.10;2.87;;;-3.10;99.90;-2.40;96948.00;;;;5029013;28;20826;-69
2023/01/30 01:55:36;;;;;;;7.20;4.00;;;-3.10;99.90;-2.40;96946.00;;;;5017834;28;20502;-70
2023/01/30 01:58:29;;;;;;;2.83;2.40;;;-3.00;99.90;-2.20;96944.00;;;;5029116;28;20987;-70
2023/01/30 02:01:18;;;;;;;4.13;3.00;;;-3.00;99.90;-2.30;96938.00;;;;5029555;28;20939;-70
2023/01/30 02:04:10;;;;;;;4.93;2.43;;;-3.00;99.90;-2.60;96923.00;;;;5029141;28;20417;-70
2023/01/30 02:06:59;;;;;;;3.53;3.20;;;-3.10;99.90;-2.50;96939.00;;;;5029807;28;20471;-70
2023/01/30 02:09:48;;;;;;;5.27;3.00;;;-3.10;99.90;-2.70;96933.00;;;;5029645;28;20421;-70
2023/01/30 02:12:38;;;;;;;2.50;2.30;;;-3.10;99.90;-2.50;96927.00;;;;5016628;28;20425;-70
2023/01/30 02:15:27;;;;;;;4.90;3.50;;;-3.10;99.90;-2.30;96935.00;;;;5025409;28;20436;-69
2023/01/30 02:18:16;;;;;;;2.90;2.67;;;-3.10;99.90;-2.40;96930.00;;;;5028900;28;20502;-69
2023/01/30 02:21:50;;;;;;;3.67;2.77;;;-3.10;99.90;-2.20;96932.00;;;;5029265;28;20490;-69
2023/01/30 02:25:12;;;;;;;3.27;2.23;;;-3.10;99.90;-2.40;96917.00;;;;5028670;28;20447;-69
2023/01/30 02:28:58;;;;;;;2.73;2.27;;;-3.10;99.90;-2.70;96912.00;;;;5028050;28;20764;-70
2023/01/30 02:31:54;;;;;;;3.63;3.17;;;-3.20;99.90;-3.00;96916.00;;;;5013008;28;20582;-69
2023/01/30 02:34:53;;;;;;;2.13;1.70;;;-3.30;99.90;-3.10;96905.00;;;;5028644;28;20521;-69
2023/01/30 02:37:57;;;;;;;2.37;2.23;;;-3.40;99.90;-3.00;96897.00;;;;5028166;28;21480;-69
2023/01/30 02:41:01;;;;;;;2.67;2.47;;;-3.50;99.90;-3.00;96895.00;;;;5016478;28;20428;-69
2023/01/30 02:44:00;;;;;;;1.53;1.43;;;-3.40;99.90;-2.90;96896.00;;;;5029346;28;20497;-70
2023/01/30 02:46:56;;;;;;;2.10;1.73;;;-3.40;99.90;-3.10;96901.00;;;;5027792;28;20444;-69
2023/01/30 02:49:52;;;;;;;1.50;1.47;;;-3.40;99.90;-3.80;96889.00;;;;5032627;28;20455;-70
2023/01/30 02:52:42;;;;;;;1.47;1.33;;;-3.50;99.90;-3.70;96891.00;;;;5032781;28;20522;-70
2023/01/30 02:55:31;;;;;;;1.80;1.70;;;-3.70;99.90;-3.50;96889.00;;;;5019967;28;20428;-71
2023/01/30 02:58:23;;;;;;;4.03;2.80;;;-3.80;99.90;-3.20;96885.00;;;;5031925;28;21029;-69
2023/01/30 03:01:36;;;;;;;3.27;2.93;;;-3.70;99.90;-3.10;96891.00;;;;5032029;28;20464;-69
2023/01/30 03:04:41;;;;;;;2.80;1.90;;;-3.70;99.90;-3.30;96887.00;;;;5032554;28;20432;-69
2023/01/30 03:07:45;;;;;;;3.93;3.27;;;-3.50;99.90;-3.30;96882.00;;;;5033203;28;21033;-69
2023/01/30 03:10:43;;;;;;;1.43;1.33;;;-3.70;99.90;-3.60;96875.00;;;;5032878;28;20431;-71
2023/01/30 03:13:48;;;;;;;3.47;2.67;;;-3.80;99.90;-3.20;96874.00;;;;5020442;28;20478;-69
2023/01/30 03:16:39;;;;;;;2.27;2.07;;;-3.80;99.90;-3.30;96871.00;;;;5025744;28;20865;-69
2023/01/30 03:19:30;;;;;;;2.43;2.23;;;-3.70;99.90;-3.50;96871.00;;;;5031533;28;20429;-68
2023/01/30 03:22:20;;;;;;;4.77;3.27;;;-3.70;99.90;-3.40;96867.00;;;;5032585;28;20459;-68
2023/01/30 03:25:11;;;;;;;5.97;2.93;;;-3.80;99.90;-3.40;96869.00;;;;5022080;28;21037;-68
2023/01/30 03:28:03;;;;;;;1.60;1.50;;;-3.80;99.90;-3.30;96864.00;;;;5032645;28;21067;-70
2023/01/30 03:30:51;;;;;;;2.37;2.20;;;-3.80;99.90;-3.30;96867.00;;;;5032927;28;20424;-69
2023/01/30 03:33:40;;;;;;;1.67;1.57;;;-3.80;99.90;-4.00;96863.00;;;;5031518;28;20431;-72
2023/01/30 03:36:30;;;;;;;2.40;2.17;;;-2.60;99.90;-3.70;96862.00;;;;5022487;28;20527;-69
2023/01/30 03:39:19;;;;;;;1.70;1.60;;;-4.00;99.90;-3.50;96865.00;;;;5031377;28;20428;-69
2023/01/30 03:42:08;;;;;;;1.73;1.63;;;-3.40;99.90;-3.10;96869.00;;;;5031920;28;20503;-71
2023/01/30 03:44:56;;;;;;;3.43;3.23;;;-3.90;99.90;-2.90;96866.00;;;;5031784;28;20428;-71
2023/01/30 03:47:45;;;;;;;2.40;2.20;;;-3.60;99.90;-3.00;96862.00;;;;5030246;28;20525;-69
2023/01/30 03:50:34;;;;;;;1.93;1.83;;;-3.70;99.90;-2.90;96849.00;;;;5031130;28;20432;-69
2023/01/30 03:53:24;;;;;;;3.37;2.70;;;-3.70;99.90;-3.30;96837.00;;;;5032531;28;20505;-70
2023/01/30 03:56:13;;;;;;;4.60;3.73;;;-3.60;99.90;-3.40;96832.00;;;;5030900;28;20435;-69
2023/01/30 03:59:01;;;;;;;2.20;1.43;;;-3.70;99.90;-3.40;96845.00;;;;5019478;28;20421;-69
2023/01/30 04:01:50;;;;;;;2.90;2.20;;;-3.80;99.90;-3.70;96833.00;;;;5029465;28;20428;-69
2023/01/30 04:04:39;;;;;;;0.80;0.80;;;-3.90;99.90;-3.90;96846.00;;;;5031118;28;20432;-71
2023/01/30 04:07:29;;;;;;;2.50;2.07;;;-4.00;99.90;-3.90;96844.00;;;;5030218;28;20510;-69
2023/01/30 04:10:19;;;;;;;1.70;1.60;;;-3.80;99.90;-4.20;96832.00;;;;5030735;28;20513;-69
2023/01/30 04:13:08;;;;;;;1.87;1.70;;;-4.10;99.90;-3.60;96825.00;;;;5019526;28;20432;-69
2023/01/30 04:16:16;;;;;;;1.70;1.53;;;-4.10;99.90;-3.40;96821.00;;;;5026833;28;20432;-69
2023/01/30 04:19:05;;;;;;;2.27;2.13;;;-4.10;99.90;-3.10;96833.00;;;;5029443;28;20428;-70
2023/01/30 04:21:53;;;;;;;1.30;1.30;;;-4.00;99.90;-2.90;96825.00;;;;5030521;28;20436;-69
2023/01/30 04:24:42;;;;;;;1.93;1.83;;;-3.70;99.90;-3.00;96820.00;;;;5032615;28;20508;-70
2023/01/30 04:27:32;;;;;;;1.10;1.10;;;-3.80;99.90;-3.50;96818.00;;;;5030401;28;20456;-70
2023/01/30 04:30:21;;;;;;;1.10;1.10;;;-3.70;99.90;-4.20;96817.00;;;;5030937;28;21022;-68
2023/01/30 04:33:10;;;;;;;0.93;0.93;;;-4.00;99.90;-4.30;96798.00;;;;5030925;28;20420;-72
2023/01/30 04:36:00;;;;;;;1.87;1.43;;;-4.10;99.90;-4.40;96782.00;;;;5030551;28;20463;-69
2023/01/30 04:38:48;;;;;;;1.03;1.03;;;-4.30;99.90;-4.00;96786.00;;;;5030085;28;20425;-69
2023/01/30 04:41:37;;;;;;;0.87;0.87;;;-4.30;99.90;-4.40;96783.00;;;;5032348;28;20487;-71
2023/01/30 04:44:27;;;;;;;1.37;1.27;;;-4.10;99.90;-4.60;96798.00;;;;5030489;28;21250;-71
2023/01/30 04:47:17;;;;;;;2.67;1.73;;;-4.50;99.90;-4.30;96790.00;;;;5030513;28;20541;-69
2023/01/30 04:50:07;;;;;;;1.57;1.47;;;-4.20;99.90;-4.40;96780.00;;;;5030005;28;20460;-69
2023/01/30 04:52:55;;;;;;;1.93;1.70;;;-4.60;99.90;-4.00;96798.00;;;;5030456;28;20586;-69
2023/01/30 04:55:44;;;;;;;1.33;1.23;;;-4.50;99.90;-3.50;96796.00;;;;5029603;28;20805;-70
2023/01/30 04:58:33;;;;;;;2.17;1.60;;;-4.40;99.90;-3.50;96787.00;;;;5029526;28;20448;-70
2023/01/30 05:01:30;;;;;;;2.27;2.07;;;-4.20;99.90;-3.40;96791.00;;;;5030364;28;20432;-70
2023/01/30 05:04:18;;;;;;;1.27;1.17;;;-4.10;99.90;-4.00;96771.00;;;;5029555;28;20431;-70
2023/01/30 05:07:07;;;;;;;1.30;1.20;;;-4.20;99.90;-3.90;96773.00;;;;5015120;28;20479;-69
2023/01/30 05:09:56;;;;;;;1.13;1.13;;;-4.20;99.90;-4.70;96764.00;;;;5020863;28;20496;-70
2023/01/30 05:12:45;;;;;;;1.73;1.63;;;-4.30;99.90;-4.40;96774.00;;;;5024814;28;20421;-69
2023/01/30 05:15:34;;;;;;;5.37;1.20;;;-4.40;99.90;-4.50;96782.00;;;;5025587;28;20421;-72
2023/01/30 05:18:24;;;;;;;3.23;1.80;;;-4.50;99.90;-4.00;96771.00;;;;5022711;28;20445;-70
2023/01/30 05:21:15;;;;;;;7.93;7.17;;;-4.50;99.90;-4.10;96771.00;;;;5017768;28;20434;-69
2023/01/30 05:24:05;;;;;;;1.43;1.37;;;-4.50;99.90;-3.70;96768.00;;;;5016617;28;20444;-71
2023/01/30 05:26:53;;;;;;;2.20;2.10;;;-4.40;99.90;-3.80;96754.00;;;;5024290;28;20460;-68
2023/01/30 05:29:42;;;;;;;1.70;1.60;;;-4.20;99.90;-3.40;96773.00;;;;5024265;28;20457;-71
2023/01/30 05:32:31;;;;;;;2.93;1.97;;;-3.90;99.90;-3.50;96762.00;;;;5019518;28;20432;-70
2023/01/30 05:35:21;;;;;;;1.33;1.30;;;-3.90;99.90;-4.30;96750.00;;;;5030032;28;20432;-69
2023/01/30 05:38:09;;;;;;;1.50;1.40;;;-4.30;99.90;-4.00;96760.00;;;;5020166;28;20521;-71
2023/01/30 05:41:00;;;;;;;2.73;2.43;;;-4.30;99.90;-3.90;96740.00;;;;5020543;28;20431;-69
2023/01/30 05:43:52;;;;;;;3.17;2.20;;;-4.20;99.90;-3.80;96755.00;;;;5025990;28;20440;-70
2023/01/30 05:46:40;;;;;;;1.67;1.57;;;-4.20;99.90;-3.70;96748.00;;;;5022087;28;20437;-69
2023/01/30 05:49:29;;;;;;;1.97;1.87;;;-4.20;99.90;-3.30;96749.00;;;;5017567;28;20483;-70
2023/01/30 05:52:19;;;;;;;2.47;2.03;;;-4.10;99.90;-3.60;96749.00;;;;5019329;28;20421;-70
2023/01/30 05:55:09;;;;;;;2.27;1.70;;;-3.60;99.90;-3.60;96734.00;;;;5019618;28;20428;-69
2023/01/30 05:57:58;;;;;;;2.00;1.80;;;-4.00;99.90;-3.70;96728.00;;;;5021802;28;20967;-69
2023/01/30 06:00:47;;;;;;;2.50;2.30;;;-4.10;99.90;-4.00;96732.00;;;;5018581;28;20495;-70
2023/01/30 06:03:36;;;;;;;1.40;1.27;;;-3.90;99.90;-4.20;96740.00;;;;5014893;28;20413;-72
2023/01/30 06:06:25;;;;;;;2.10;2.00;;;-4.30;99.90;-3.90;96726.00;;;;5018709;28;20439;-70
2023/01/30 06:09:15;;;;;;;1.43;1.27;;;-4.30;99.90;-4.20;96721.00;;;;5024605;28;20474;-69
2023/01/30 06:12:05;;;;;;;1.27;1.27;;;-4.30;99.90;-3.90;96731.00;;;;5015101;28;20433;-71
2023/01/30 06:14:53;;;;;;;4.07;2.43;;;-4.30;99.90;-4.10;96715.00;;;;5011775;28;21145;-70
2023/01/30 06:17:43;;;;;;;1.67;1.57;;;-4.40;99.90;-3.60;96709.00;;;;5027499;28;20510;-70
2023/01/30 06:20:32;;;;;;;3.53;3.13;;;-4.10;99.90;-3.60;96720.00;;;;5028981;28;20443;-70
2023/01/30 06:23:22;;;;;;;1.00;1.00;;;-4.00;99.90;-3.90;96729.00;;;;5027030;28;20456;-73
2023/01/30 06:26:12;;;;;;;3.17;1.97;;;-4.20;99.90;-3.80;96742.00;;;;5022659;28;20429;-68
2023/01/30 06:29:01;;;;;;;1.50;1.50;;;-4.20;99.90;-4.00;96725.00;;;;5023209;28;20460;-69
2023/01/30 06:31:49;;;;;;;1.93;1.77;;;-4.10;99.90;-3.50;96742.00;;;;5023255;28;20438;-70
2023/01/30 06:34:38;;;;;;;2.60;2.37;;;-4.10;99.90;-3.90;96732.00;;;;5017367;28;20440;-70
2023/01/30 06:37:27;;;;;;;7.40;3.63;;;-4.10;99.90;-3.40;96734.00;;;;5017450;28;20448;-70
2023/01/30 06:40:16;;;;;;;3.33;3.07;;;-4.00;99.90;-3.80;96735.00;;;;5020248;28;20498;-70
2023/01/30 06:43:07;;;;;;;1.77;1.67;;;-4.00;99.90;-3.60;96751.00;;;;5018031;28;20453;-69
2023/01/30 06:45:55;;;;;;;1.37;1.37;;;-4.00;99.90;-4.10;96727.00;;;;5024725;28;20491;-72
2023/01/30 06:48:44;;;;;;;3.93;2.27;;;-4.10;99.90;-3.30;96718.00;;;;5011753;28;20830;-72
2023/01/30 06:51:33;;;;;;;2.83;2.63;;;-4.10;99.90;-3.00;96735.00;;;;5023312;28;20490;-73
2023/01/30 06:54:21;;;;;;;3.53;3.17;;;-3.90;99.90;-3.20;96718.00;;;;5018472;28;20511;-71
2023/01/30 06:57:11;;;;;;;3.33;3.03;;;-3.90;99.90;-2.70;96724.00;;;;5021157;28;20444;-71
2023/01/30 07:00:01;;;;;;;3.93;2.00;;;-3.80;99.90;-2.90;96740.00;;;;5022388;28;20428;-71
2023/01/30 07:02:50;;;;;;;4.23;1.30;;;-4.40;99.90;-3.50;96749.00;;;;5027584;28;20909;-68
2023/01/30 07:05:39;;;;;;;1.77;1.67;;;-3.70;99.90;-3.20;96741.00;;;;5028593;28;20421;-70
2023/01/30 07:08:28;;;;;;;2.63;2.27;;;-3.70;99.90;-2.70;96750.00;;;;5027970;28;20455;-70
2023/01/30 07:11:16;;;;;;;1.87;1.77;;;-3.60;99.90;-2.90;96740.00;;;;5023342;28;20471;-69
2023/01/30 07:14:05;;;;;;;1.43;1.33;;;-3.50;99.90;-3.00;96744.00;;;;5024757;28;20444;-69
2023/01/30 07:16:56;;;;;;;1.70;1.57;;;-3.50;99.90;-2.90;96725.00;;;;5021900;28;20456;-70
2023/01/30 07:19:45;;;;;;;0.83;0.83;;;-3.40;99.90;-2.60;96729.00;;;;5023281;28;20455;-71
2023/01/30 07:22:33;;;;;;;1.50;1.40;;;-3.30;99.90;-2.90;96720.00;;;;5016726;28;20417;-69
2023/01/30 07:25:25;;;;;;;4.27;2.33;;;-3.30;99.90;-2.30;96719.00;;;;5028236;28;20432;-69
2023/01/30 07:28:14;;;;;;;2.27;1.90;;;-3.20;99.90;-2.60;96716.00;;;;5027883;28;20858;-70
2023/01/30 07:31:02;;;;;;;2.23;2.13;;;-3.10;99.90;-2.30;96706.00;;;;5022757;28;20547;-69
2023/01/30 07:33:52;;;;;;;1.93;1.80;;;-3.00;99.90;-1.80;96711.00;;;;5022844;28;20413;-69
2023/01/30 07:36:41;;;;;;;2.70;2.17;;;-2.90;99.90;-1.40;96710.00;;;;5028062;28;20440;-69
2023/01/30 07:39:30;;;;;;;2.67;1.53;;;-2.70;99.90;-1.20;96701.00;;;;5023007;28;20498;-69
2023/01/30 07:42:18;;;;;;;1.70;1.43;;;-2.60;99.90;-1.70;96689.00;;;;5018374;28;20420;-69
2023/01/30 07:45:09;;;;;;;1.33;1.23;;;-2.50;99.90;-2.20;96690.00;;;;5028259;28;20429;-71
2023/01/30 07:47:57;;;;;;;1.10;1.10;;;-2.50;99.90;-1.60;96687.00;;;;5023853;28;21094;-71
2023/01/30 07:50:48;;;;;;;1.93;1.83;;;-2.50;99.90;-1.30;96694.00;;;;5019272;28;20460;-71
2023/01/30 07:53:36;;;;;;;15.77;12.73;;;-2.40;99.90;-1.90;96684.00;;;;5024523;28;20424;-71
2023/01/30 07:56:25;;;;;;;5.60;3.63;;;-2.40;99.90;-1.80;96681.00;;;;5022533;28;20427;-70
2023/01/30 07:59:14;;;;;;;3.73;2.20;;;-2.40;99.90;-1.50;96691.00;;;;5022335;28;20447;-69
2023/01/30 08:02:02;;;;;;;12.17;2.37;;;-2.40;99.90;-1.40;96688.00;;;;5017779;28;20425;-70
2023/01/30 08:04:51;;;;;;;3.03;2.60;;;-2.30;99.90;-1.30;96680.00;;;;5025395;28;20419;-69
2023/01/30 08:07:41;;;;;;;6.40;3.00;;;-2.20;99.90;-1.60;96661.00;;;;5025457;28;20879;-70
2023/01/30 08:10:30;;;;;;;2.40;2.20;;;-2.20;99.90;-1.70;96674.00;;;;5029716;28;20456;-70
2023/01/30 08:13:18;;;;;;;2.10;1.67;;;-2.20;99.90;-1.20;96673.00;;;;5027497;28;20496;-69
2023/01/30 08:16:08;;;;;;;2.13;1.60;;;-2.20;99.90;-1.30;96671.00;;;;5030944;28;20443;-69
2023/01/30 08:18:57;;;;;;;2.53;1.60;;;-2.10;99.90;-1.40;96680.00;;;;5027185;28;20424;-69
2023/01/30 08:21:45;;;;;;;1.53;1.43;;;-2.10;99.90;-1.40;96676.00;;;;5025590;28;20428;-70
2023/01/30 08:24:35;;;;;;;4.27;2.67;;;-2.10;99.90;-1.00;96672.00;;;;5030233;28;20424;-70
2023/01/30 08:27:24;;;;;;;2.70;2.13;;;-2.00;99.90;-0.80;96649.00;;;;5030139;28;20880;-70
2023/01/30 08:30:14;;;;;;;3.67;2.77;;;-1.90;99.90;-0.60;96655.00;;;;5029722;28;20471;-70
2023/01/30 08:33:03;;;;;;;1.60;1.50;;;-1.70;99.90;-0.50;96652.00;;;;5031408;28;20443;-70
2023/01/30 08:35:51;;;;;;;1.90;1.67;;;-1.60;99.90;-0.60;96643.00;;;;5030425;28;20456;-70
2023/01/30 08:38:40;;;;;;;2.50;1.90;;;-1.50;99.90;-0.50;96654.00;;;;5029471;28;20487;-70
2023/01/30 08:41:30;;;;;;;2.20;1.93;;;-1.40;99.90;-0.30;96667.00;;;;5029812;28;20470;-70
2023/01/30 08:44:19;;;;;;;4.37;2.37;;;-1.30;99.90;0.00;96669.00;;;;5022690;28;20435;-70
2023/01/30 08:47:08;;;;;;;3.60;2.77;;;-1.20;99.90;0.00;96666.00;;;;5018118;28;20494;-69
2023/01/30 08:49:56;;;;;;;4.30;2.83;;;-1.10;99.90;0.10;96665.00;;;;5026608;28;20421;-70
2023/01/30 08:52:45;;;;;;;3.50;2.23;;;-1.00;99.90;0.00;96647.00;;;;5024432;28;20417;-70
2023/01/30 08:55:34;;;;;;;3.00;2.17;;;-0.90;99.90;0.60;96650.00;;;;5030762;28;20478;-69
2023/01/30 08:58:24;;;;;;;7.60;3.63;;;-0.70;99.90;0.20;96635.00;;;;5030076;28;20498;-70
2023/01/30 09:01:13;;;;;;;5.80;3.13;;;-0.70;99.90;0.50;96634.00;;;;5018652;28;20445;-70
2023/01/30 09:04:02;;;;;;;9.00;4.87;;;-0.60;99.90;0.60;96631.00;;;;5016414;28;20421;-69
2023/01/30 09:06:50;;;;;;;6.30;4.63;;;-0.50;99.90;0.90;96627.00;;;;5021563;28;20444;-70
2023/01/30 09:09:39;;;;;;;1.67;1.43;;;-0.30;99.90;0.60;96624.00;;;;5025881;28;20439;-70
2023/01/30 09:12:28;;;;;;;6.37;3.97;;;-0.30;99.90;0.80;96627.00;;;;5025281;28;20582;-69
2023/01/30 09:15:18;;;;;;;6.93;4.40;;;-0.20;99.90;0.80;96620.00;;;;5019161;28;20418;-70
2023/01/30 09:18:07;;;;;;;4.03;2.33;;;-0.20;99.90;1.00;96623.00;;;;5022567;28;20806;-70
2023/01/30 09:21:03;;;;;;;1.93;1.60;;;-0.10;99.90;1.10;96616.00;;;;5026567;28;20428;-69
2023/01/30 09:23:52;;;;;;;8.00;2.77;;;0.00;99.90;1.10;96610.00;;;;5022047;28;20421;-69
2023/01/30 09:26:43;;;;;;;5.43;2.70;;;0.00;99.90;1.50;96611.00;;;;5029460;28;20440;-69
2023/01/30 09:29:32;;;;;;;3.30;2.97;;;0.30;99.90;1.20;96598.00;;;;5029634;28;20429;-69
2023/01/30 09:32:22;;;;;;;2.50;2.30;;;0.40;99.90;1.70;96604.00;;;;5029518;28;20476;-69
2023/01/30 09:35:11;;;;;;;5.73;2.60;;;0.50;99.90;1.80;96596.00;;;;5028975;28;20444;-69
2023/01/30 09:38:00;;;;;;;5.13;2.57;;;0.50;99.90;1.60;96589.00;;;;5028612;28;20448;-70
2023/01/30 09:41:08;;;;;;;2.27;2.03;;;0.70;99.90;1.80;96588.00;;;;5029211;28;20436;-69
2023/01/30 09:44:32;;;;;;;3.07;2.57;;;0.80;99.90;2.20;96594.00;;;;5023419;28;20417;-70
2023/01/30 09:47:34;;;;;;;3.27;2.10;;;0.90;99.90;2.70;96572.00;;;;5029924;28;20448;-69
2023/01/30 09:50:45;;;;;;;6.03;2.43;;;1.20;99.90;3.00;96582.00;;;;5016951;28;20514;-69
2023/01/30 09:53:54;;;;;;;4.13;3.03;;;1.50;99.90;3.40;96571.00;;;;5029707;28;20514;-69
2023/01/30 09:56:42;;;;;;;11.70;5.67;;;1.70;99.90;3.50;96573.00;;;;5027999;28;20444;-69
2023/01/30 09:59:45;;;;;;;15.93;3.50;;;1.90;99.90;3.60;96564.00;;;;5027833;28;20822;-70
2023/01/30 10:02:49;;;;;;;10.40;3.93;;;2.00;99.90;3.40;96555.00;;;;5030854;28;20486;-71
2023/01/30 10:05:44;;;;;;;8.63;2.33;;;2.10;99.90;4.00;96567.00;;;;5021651;28;20986;-70
2023/01/30 10:08:52;;;;;;;5.10;2.70;;;2.20;99.90;3.70;96542.00;;;;5028990;28;20444;-70
2023/01/30 10:12:00;;;;;;;7.60;2.30;;;2.30;99.90;3.80;96537.00;;;;5023862;28;20217;-69
2023/01/30 10:15:07;;;;;;;4.80;2.43;;;2.40;99.90;3.70;96557.00;;;;5022099;28;20429;-69
2023/01/30 10:18:41;;;;;;;5.13;2.87;;;2.50;99.90;3.30;96543.00;;;;5023477;28;20223;-70
2023/01/30 10:21:44;;;;;;;7.33;2.90;;;2.50;99.90;3.10;96538.00;;;;5012215;28;20201;-69
2023/01/30 10:24:45;;;;;;;10.67;2.23;;;2.40;99.90;3.30;96527.00;;;;5018029;28;20428;-69
2023/01/30 10:27:36;;;;;;;3.60;2.60;;;2.30;99.90;4.10;96510.00;;;;5028282;28;20447;-69
2023/01/30 10:30:25;;;;;;;5.23;2.27;;;2.50;99.90;4.20;96521.00;;;;5028578;28;20205;-69
2023/01/30 10:33:22;;;;;;;5.07;2.20;;;2.70;99.90;4.10;96510.00;;;;5025450;28;20437;-69
2023/01/30 10:36:16;;;;;;;3.97;2.97;;;2.90;99.90;4.30;96519.00;;;;5015655;28;20291;-69
2023/01/30 10:39:21;;;;;;;3.43;2.20;;;3.00;99.90;5.00;96514.00;;;;5016447;28;20202;-69
2023/01/30 10:42:13;;;;;;;7.30;2.17;;;3.30;99.90;4.60;96505.00;;;;5017295;28;20250;-69
2023/01/30 10:45:12;;;;;;;3.67;2.57;;;3.90;99.90;5.40;96496.00;;;;5014316;28;20231;-69
2023/01/30 10:48:37;;;;;;;10.70;3.10;;;4.70;99.90;6.40;96504.00;;;;5023988;28;20225;-69
2023/01/30 10:51:46;;;;;;;4.03;1.53;;;5.60;99.90;6.30;96478.00;;;;5029441;28;20227;-69
2023/01/30 10:54:41;;;;;;;3.13;2.37;;;6.70;99.90;6.60;96471.00;;;;5029026;28;20279;-69
2023/01/30 10:57:50;;;;;;;2.23;2.03;;;7.10;97.90;6.70;96466.00;;;;5028852;28;20572;-69
2023/01/30 11:00:42;;;;;;;3.67;2.50;;;7.20;97.80;7.30;96466.00;;;;5019995;28;20216;-69
2023/01/30 11:03:38;;;;;;;4.27;2.30;;;7.60;96.10;7.00;96461.00;;;;5028485;28;20255;-69
2023/01/30 11:06:27;;;;;;;4.63;2.47;;;7.70;93.50;8.60;96457.00;;;;5025319;28;20255;-69
2023/01/30 11:09:17;;;;;;;2.80;2.10;;;8.10;93.90;8.70;96437.00;;;;5027329;28;20205;-69
2023/01/30 11:12:06;;;;;;;3.67;2.50;;;8.80;91.70;8.40;96429.00;;;;5032742;28;20229;-69
2023/01/30 11:14:58;;;;;;;3.60;2.33;;;9.00;91.00;9.80;96436.00;;;;5030957;28;20795;-69
2023/01/30 11:17:47;;;;;;;4.43;2.27;;;9.30;90.70;9.10;96415.00;;;;5031955;28;20330;-69
2023/01/30 11:20:42;;;;;;;4.53;1.83;;;9.60;87.50;8.70;96404.00;;;;5032577;28;20202;-68
2023/01/30 11:23:36;;;;;;;3.90;2.47;;;9.40;87.90;8.40;96403.00;;;;5031516;28;20277;-69
2023/01/30 11:26:33;;;;;;;6.70;2.40;;;9.10;86.70;8.40;96399.00;;;;5031706;28;20695;-69
2023/01/30 11:29:35;;;;;;;3.70;2.20;;;8.70;89.10;8.70;96384.00;;;;5030970;28;20205;-69
2023/01/30 11:32:27;;;;;;;4.70;3.30;;;8.60;86.60;8.60;96401.00;;;;5032269;28;20229;-69
2023/01/30 11:35:28;;;;;;;6.10;4.23;;;8.50;86.90;10.30;96393.00;;;;5032126;28;20243;-69
2023/01/30 11:38:23;;;;;;;14.03;5.40;;;8.70;88.10;11.50;96399.00;;;;5031177;28;20229;-69
2023/01/30 11:41:21;;;;;;;4.27;1.90;;;9.30;88.70;10.80;96386.00;;;;5025262;28;20232;-69
2023/01/30 11:44:12;;;;;;;2.60;2.37;;;9.80;84.20;11.00;96401.00;;;;5030928;28;20197;-69
2023/01/30 11:47:03;;;;;;;4.67;3.60;;;10.00;84.10;11.60;96380.00;;;;5027433;28;20721;-69
2023/01/30 11:49:57;;;;;;;10.00;5.63;;;10.40;82.00;12.30;96381.00;;;;5031067;28;20209;-69
2023/01/30 11:52:48;;;;;;;3.93;2.97;;;11.10;90.60;11.60;96368.00;;;;5021301;28;20304;-67
2023/01/30 11:55:38;;;;;;;3.50;2.73;;;11.10;82.20;11.70;96365.00;;;;5030772;28;20213;-69
2023/01/30 11:58:32;;;;;;;5.27;2.20;;;11.20;79.70;12.50;96363.00;;;;5031131;28;20225;-68
2023/01/30 12:01:27;;;;;;;12.37;4.47;;;11.20;82.30;13.60;96366.00;;;;5032732;28;20197;-68
2023/01/30 12:04:16;;;;;;;6.37;2.93;;;11.60;82.40;14.40;96361.00;;;;5031236;28;20267;-68
2023/01/30 12:07:13;;;;;;;6.87;3.43;;;12.20;81.00;14.30;96346.00;;;;5030984;28;20233;-69
2023/01/30 12:10:25;;;;;;;4.23;2.90;;;12.50;75.90;14.10;96342.00;;;;5032281;28;20267;-69
2023/01/30 12:13:20;;;;;;;8.83;3.13;;;12.80;74.80;14.70;96344.00;;;;5032025;28;20303;-69
2023/01/30 12:16:24;;;;;;;4.43;2.80;;;13.00;75.00;15.20;96348.00;;;;5029716;28;20240;-69
2023/01/30 12:19:25;;;;;;;26.57;4.83;;;13.40;72.70;15.70;96343.00;;;;5020352;28;20197;-69
2023/01/30 12:22:24;;;;;;;5.87;2.90;;;13.70;71.80;15.30;96339.00;;;;5026735;28;20211;-69
2023/01/30 12:25:20;;;;;;;2.83;2.07;;;13.90;71.90;16.00;96340.00;;;;5024505;28;20201;-69
2023/01/30 12:28:21;;;;;;;4.30;2.93;;;14.00;70.80;14.30;96318.00;;;;5021209;28;20233;-69
2023/01/30 12:31:18;;;;;;;8.60;4.93;;;14.10;68.40;15.50;96328.00;;;;5021934;28;20193;-69
2023/01/30 12:34:10;;;;;;;6.30;4.03;;;14.10;67.90;16.80;96331.00;;;;5023365;28;20197;-69
2023/01/30 12:37:28;;;;;;;6.13;3.70;;;14.40;68.60;16.90;96321.00;;;;5020442;28;20221;-68
2023/01/30 12:40:32;;;;;;;6.70;2.90;;;14.70;68.90;17.00;96315.00;;;;5024964;28;20212;-69
2023/01/30 12:43:45;;;;;;;6.47;3.80;;;15.30;67.50;17.90;96318.00;;;;5025482;28;21541;-69
2023/01/30 12:47:05;;;;;;;9.70;3.70;;;16.20;67.00;17.60;96308.00;;;;5022931;28;20240;-69
2023/01/30 12:50:19;;;;;;;7.63;3.57;;;15.90;65.80;18.20;96301.00;;;;5025580;28;20201;-66
2023/01/30 12:53:49;;;;;;;7.23;3.60;;;16.30;65.40;18.30;96292.00;;;;5022574;28;20238;-67
2023/01/30 12:56:49;;;;;;;9.33;4.03;;;16.80;62.70;18.80;96295.00;;;;4997889;28;20221;-67